createdAt,value
2023-06-07T00:00:03.094Z,4.82
2023-06-07T00:02:44.182Z,5.47
2023-06-07T00:05:14.478Z,3.08
2023-06-07T00:07:43.318Z,4.05
2023-06-07T00:10:11.552Z,3.63
2023-06-07T00:12:40.183Z,3.58
2023-06-07T00:15:08.982Z,3.03
2023-06-07T00:17:39.120Z,3.15
2023-06-07T00:20:10.450Z,3.72
2023-06-07T00:22:39.724Z,4.20
2023-06-07T00:25:09.929Z,3.65
2023-06-07T00:27:37.864Z,2.47
2023-06-07T00:30:07.979Z,3.50
2023-06-07T00:32:36.100Z,3.05
2023-06-07T00:35:04.416Z,2.38
2023-06-07T00:37:32.236Z,2.88
2023-06-07T00:40:00.817Z,2.58
2023-06-07T00:42:29.055Z,2.38
2023-06-07T00:44:58.460Z,3.67
2023-06-07T00:47:27.673Z,2.92
2023-06-07T00:49:55.917Z,2.83
2023-06-07T00:52:24.132Z,3.22
2023-06-07T00:54:52.501Z,2.60
2023-06-07T00:57:22.468Z,2.53
2023-06-07T00:59:50.258Z,3.28
2023-06-07T01:02:18.394Z,3.42
2023-06-07T01:04:46.657Z,2.50
2023-06-07T01:07:18.875Z,3.55
2023-06-07T01:09:46.700Z,3.42
2023-06-07T01:12:17.294Z,4.30
2023-06-07T01:14:49.576Z,2.90
2023-06-07T01:17:19.537Z,2.83
2023-06-07T01:19:54.370Z,1.92
2023-06-07T01:22:29.095Z,3.90
2023-06-07T01:24:57.458Z,3.10
2023-06-07T01:27:28.722Z,2.45
2023-06-07T01:29:58.268Z,4.03
2023-06-07T01:32:27.553Z,4.18
2023-06-07T01:34:56.096Z,3.55
2023-06-07T01:37:26.067Z,2.03
2023-06-07T01:39:56.492Z,3.03
2023-06-07T01:42:25.201Z,2.40
2023-06-07T01:44:55.363Z,3.22
2023-06-07T01:47:23.636Z,2.03
2023-06-07T01:49:51.398Z,2.42
2023-06-07T01:52:19.167Z,3.88
2023-06-07T01:54:47.834Z,5.03
2023-06-07T01:57:30.790Z,3.25
2023-06-07T02:00:24.379Z,3.63
2023-06-07T02:03:17.897Z,4.85
2023-06-07T02:05:51.582Z,3.15
2023-06-07T02:08:35.718Z,3.55
2023-06-07T02:11:05.139Z,3.92
2023-06-07T02:13:41.039Z,3.97
2023-06-07T02:16:09.127Z,4.45
2023-06-07T02:18:42.239Z,3.30
2023-06-07T02:21:11.440Z,3.75
2023-06-07T02:23:39.699Z,2.78
2023-06-07T02:26:07.659Z,4.72
2023-06-07T02:28:35.708Z,4.35
2023-06-07T02:31:04.447Z,3.38
2023-06-07T02:33:32.317Z,3.03
2023-06-07T02:36:01.167Z,2.85
2023-06-07T02:38:29.144Z,5.07
2023-06-07T02:40:57.054Z,3.90
2023-06-07T02:43:26.530Z,2.78
2023-06-07T02:45:54.417Z,4.15
2023-06-07T02:48:23.642Z,3.72
2023-06-07T02:50:51.501Z,3.40
2023-06-07T02:53:19.916Z,3.42
2023-06-07T02:55:48.725Z,3.45
2023-06-07T02:58:16.849Z,3.42
2023-06-07T03:00:51.491Z,5.43
2023-06-07T03:03:20.991Z,3.15
2023-06-07T03:06:01.201Z,3.03
2023-06-07T03:08:33.633Z,2.88
2023-06-07T03:11:02.842Z,3.58
2023-06-07T03:13:35.434Z,6.15
2023-06-07T03:16:07.263Z,4.40
2023-06-07T03:18:43.329Z,3.47
2023-06-07T03:21:11.255Z,3.05
2023-06-07T03:23:39.974Z,2.42
2023-06-07T03:26:11.684Z,3.55
2023-06-07T03:28:40.105Z,2.67
2023-06-07T03:31:09.090Z,3.10
2023-06-07T03:33:46.247Z,3.63
2023-06-07T03:36:14.417Z,3.83
2023-06-07T03:38:46.397Z,2.45
2023-06-07T03:41:14.563Z,3.22
2023-06-07T03:43:42.659Z,3.40
2023-06-07T03:46:11.444Z,4.72
2023-06-07T03:48:39.631Z,4.05
2023-06-07T03:51:09.954Z,2.75
2023-06-07T03:53:43.133Z,2.92
2023-06-07T03:56:11.461Z,3.30
2023-06-07T03:58:40.034Z,2.50
2023-06-07T04:01:13.080Z,3.00
2023-06-07T04:03:41.403Z,2.80
2023-06-07T04:06:11.041Z,3.15
2023-06-07T04:08:40.053Z,2.70
2023-06-07T04:11:09.573Z,3.85
2023-06-07T04:13:38.248Z,3.25
2023-06-07T04:16:06.303Z,1.55
2023-06-07T04:18:34.093Z,2.72
2023-06-07T04:21:02.256Z,3.08
2023-06-07T04:23:34.766Z,3.90
2023-06-07T04:26:06.773Z,5.13
2023-06-07T04:28:36.127Z,5.03
2023-06-07T04:31:08.804Z,6.90
2023-06-07T04:33:38.771Z,3.35
2023-06-07T04:36:09.746Z,5.03
2023-06-07T04:38:57.489Z,4.15
2023-06-07T04:41:34.506Z,3.95
2023-06-07T04:44:06.730Z,3.28
2023-06-07T04:46:41.155Z,2.53
2023-06-07T04:49:18.616Z,2.72
2023-06-07T04:51:49.893Z,3.28
2023-06-07T04:54:19.378Z,2.60
2023-06-07T04:56:58.020Z,5.75
2023-06-07T04:59:36.341Z,5.53
2023-06-07T05:02:11.079Z,7.72
2023-06-07T05:04:39.649Z,6.28
2023-06-07T05:07:07.835Z,6.50
2023-06-07T05:09:39.849Z,4.68
2023-06-07T05:12:09.921Z,4.72
2023-06-07T05:14:38.582Z,6.82
2023-06-07T05:17:06.865Z,7.65
2023-06-07T05:19:36.146Z,7.68
2023-06-07T05:22:05.153Z,6.20
2023-06-07T05:24:35.188Z,4.65
2023-06-07T05:27:04.368Z,5.32
2023-06-07T05:29:32.586Z,5.07
2023-06-07T05:32:01.756Z,3.38
2023-06-07T05:34:31.375Z,6.30
2023-06-07T05:36:59.525Z,2.88
2023-06-07T05:39:29.747Z,3.35
2023-06-07T05:41:59.256Z,3.67
2023-06-07T05:44:27.165Z,4.72
2023-06-07T05:46:54.930Z,4.47
2023-06-07T05:49:25.251Z,4.20
2023-06-07T05:51:53.431Z,5.10
2023-06-07T05:54:24.288Z,2.65
2023-06-07T05:56:54.260Z,5.72
2023-06-07T05:59:22.445Z,6.20
2023-06-07T06:01:50.483Z,5.75
2023-06-07T06:04:18.882Z,5.32
2023-06-07T06:06:47.634Z,5.25
2023-06-07T06:09:15.396Z,4.57
2023-06-07T06:11:43.566Z,6.28
2023-06-07T06:14:11.853Z,9.10
2023-06-07T06:16:39.755Z,5.20
2023-06-07T06:19:07.632Z,4.40
2023-06-07T06:21:35.857Z,2.67
2023-06-07T06:24:04.242Z,4.07
2023-06-07T06:26:32.129Z,4.00
2023-06-07T06:29:01.935Z,2.65
2023-06-07T06:31:29.952Z,3.55
2023-06-07T06:34:00.353Z,5.25
2023-06-07T06:36:28.215Z,4.60
2023-06-07T06:38:56.538Z,6.15
2023-06-07T06:41:24.325Z,5.78
2023-06-07T06:43:52.724Z,6.68
2023-06-07T06:46:20.788Z,8.20
2023-06-07T06:49:02.739Z,6.75
2023-06-07T06:51:35.272Z,9.23
2023-06-07T06:54:03.298Z,8.90
2023-06-07T06:56:31.245Z,7.13
2023-06-07T06:58:59.026Z,8.20
2023-06-07T07:01:47.366Z,6.25
2023-06-07T07:04:17.448Z,8.50
2023-06-07T07:06:45.399Z,10.25
2023-06-07T07:09:13.895Z,7.90
2023-06-07T07:11:41.907Z,12.65
2023-06-07T07:14:09.897Z,13.13
2023-06-07T07:16:39.098Z,16.58
2023-06-07T07:19:07.393Z,13.57
2023-06-07T07:21:35.733Z,16.90
2023-06-07T07:24:04.803Z,8.95
2023-06-07T07:26:32.692Z,14.18
2023-06-07T07:29:00.993Z,15.43
2023-06-07T07:31:31.509Z,10.57
2023-06-07T07:33:59.455Z,14.90
2023-06-07T07:36:27.700Z,12.85
2023-06-07T07:38:56.395Z,15.60
2023-06-07T07:41:26.416Z,12.57
2023-06-07T07:43:54.178Z,8.90
2023-06-07T07:46:22.029Z,10.18
2023-06-07T07:48:49.836Z,9.63
2023-06-07T07:51:17.916Z,10.05
2023-06-07T07:53:45.737Z,7.55
2023-06-07T07:56:13.665Z,6.75
2023-06-07T07:58:41.349Z,9.77
2023-06-07T08:01:10.658Z,11.45
2023-06-07T08:03:38.757Z,7.63
2023-06-07T08:06:10.106Z,10.55
2023-06-07T08:08:39.231Z,7.75
2023-06-07T08:11:09.500Z,9.98
2023-06-07T08:13:37.802Z,14.93
2023-06-07T08:16:06.002Z,9.02
2023-06-07T08:18:33.858Z,6.97
2023-06-07T08:21:01.834Z,5.45
2023-06-07T08:23:29.762Z,7.38
2023-06-07T08:25:59.651Z,7.43
2023-06-07T08:28:30.172Z,9.57
2023-06-07T08:30:58.263Z,8.48
2023-06-07T08:33:28.573Z,10.13
2023-06-07T08:35:56.572Z,15.13
2023-06-07T08:38:24.450Z,9.50
2023-06-07T08:40:55.876Z,13.35
2023-06-07T08:43:24.966Z,8.15
2023-06-07T08:45:53.258Z,9.30
2023-06-07T08:48:22.311Z,9.85
2023-06-07T08:50:52.171Z,7.80
2023-06-07T08:53:35.502Z,6.50
2023-06-07T08:56:04.548Z,5.95
2023-06-07T08:58:33.194Z,7.28
2023-06-07T09:01:01.624Z,5.70
2023-06-07T09:03:30.054Z,9.52
2023-06-07T09:05:58.135Z,7.07
2023-06-07T09:08:26.034Z,6.57
2023-06-07T09:10:55.209Z,5.82
2023-06-07T09:13:23.463Z,15.63
2023-06-07T09:15:53.841Z,17.63
2023-06-07T09:18:22.137Z,8.85
2023-06-07T09:20:51.491Z,8.88
2023-06-07T09:23:21.277Z,5.68
2023-06-07T09:25:55.415Z,9.82
2023-06-07T09:28:23.307Z,5.53
2023-06-07T09:30:56.484Z,5.57
2023-06-07T09:33:31.845Z,5.40
2023-06-07T09:36:11.315Z,3.53
2023-06-07T09:38:39.713Z,3.80
2023-06-07T09:41:08.042Z,6.35
2023-06-07T09:43:49.161Z,4.85
2023-06-07T09:46:19.425Z,5.70
2023-06-07T09:48:54.465Z,5.70
2023-06-07T09:51:22.760Z,4.57
2023-06-07T09:53:58.697Z,4.88
2023-06-07T09:56:27.226Z,6.33
2023-06-07T09:59:12.376Z,4.25
2023-06-07T10:01:47.034Z,4.03
2023-06-07T10:04:15.928Z,4.07
2023-06-07T10:06:46.288Z,4.20
2023-06-07T10:09:18.082Z,3.85
2023-06-07T10:11:49.684Z,5.00
2023-06-07T10:14:21.850Z,2.40
2023-06-07T10:17:12.296Z,6.43
2023-06-07T10:19:47.103Z,3.80
2023-06-07T10:22:17.537Z,3.80
2023-06-07T10:25:05.674Z,6.53
2023-06-07T10:28:04.185Z,4.85
2023-06-07T10:30:35.342Z,6.65
2023-06-07T10:33:06.265Z,2.92
2023-06-07T10:35:35.378Z,3.47
2023-06-07T10:38:03.274Z,2.83
2023-06-07T10:40:32.870Z,2.75
2023-06-07T10:43:01.684Z,4.50
2023-06-07T10:45:30.023Z,2.67
2023-06-07T10:47:58.059Z,5.18
2023-06-07T10:50:29.076Z,2.55
2023-06-07T10:53:01.359Z,3.03
2023-06-07T10:55:32.985Z,3.80
2023-06-07T10:58:01.721Z,2.25
2023-06-07T11:00:31.837Z,3.20
2023-06-07T11:03:27.449Z,4.55
2023-06-07T11:05:58.729Z,3.55
2023-06-07T11:08:31.786Z,3.65
2023-06-07T11:11:03.248Z,3.95
2023-06-07T11:13:41.191Z,4.18
2023-06-07T11:16:24.503Z,3.35
2023-06-07T11:18:57.340Z,2.92
2023-06-07T11:21:29.714Z,7.20
2023-06-07T11:24:11.835Z,5.88
2023-06-07T11:26:42.183Z,3.00
2023-06-07T11:29:11.447Z,5.30
2023-06-07T11:32:03.191Z,2.80
2023-06-07T11:34:32.618Z,3.28
2023-06-07T11:37:17.895Z,3.55
2023-06-07T11:39:46.632Z,4.13
2023-06-07T11:42:17.612Z,4.63
2023-06-07T11:44:45.649Z,3.17
2023-06-07T11:47:13.515Z,3.28
2023-06-07T11:49:42.491Z,5.68
2023-06-07T11:52:10.832Z,4.38
2023-06-07T11:54:43.548Z,9.10
2023-06-07T11:57:11.562Z,11.40
2023-06-07T11:59:42.260Z,12.25
2023-06-07T12:02:10.260Z,13.82
2023-06-07T12:04:39.296Z,11.95
2023-06-07T12:07:33.846Z,9.73
2023-06-07T12:10:01.853Z,7.28
2023-06-07T12:12:29.842Z,6.45
2023-06-07T12:15:02.078Z,3.15
2023-06-07T12:17:36.070Z,5.35
2023-06-07T12:20:12.843Z,5.95
2023-06-07T12:25:19.746Z,3.55
2023-06-07T12:27:48.678Z,3.28
2023-06-07T12:30:20.957Z,3.80
2023-06-07T12:32:51.421Z,5.43
2023-06-07T12:35:19.556Z,6.13
2023-06-07T12:37:47.380Z,5.85
2023-06-07T12:40:15.368Z,3.60
2023-06-07T12:42:43.519Z,3.92
2023-06-07T12:45:12.377Z,4.18
2023-06-07T12:47:42.128Z,4.45
2023-06-07T12:50:12.461Z,3.78
2023-06-07T12:52:40.727Z,4.32
2023-06-07T12:55:09.851Z,4.40
2023-06-07T12:57:37.782Z,2.83
2023-06-07T13:00:06.589Z,3.90
2023-06-07T13:02:35.930Z,3.83
2023-06-07T13:05:03.811Z,4.78
2023-06-07T13:07:32.063Z,3.20
2023-06-07T13:10:00.676Z,5.05
2023-06-07T13:12:28.853Z,4.15
2023-06-07T13:14:56.704Z,4.40
2023-06-07T13:17:26.202Z,6.97
2023-06-07T13:19:54.717Z,5.28
2023-06-07T13:22:22.858Z,4.63
2023-06-07T13:24:50.818Z,3.90
2023-06-07T13:27:18.704Z,3.92
2023-06-07T13:29:46.806Z,4.18
2023-06-07T13:32:15.203Z,6.68
2023-06-07T13:34:43.368Z,4.53
2023-06-07T13:37:11.158Z,3.47
2023-06-07T13:39:39.402Z,7.20
2023-06-07T13:42:07.593Z,4.88
2023-06-07T13:44:35.769Z,6.43
2023-06-07T13:47:04.013Z,6.53
2023-06-07T13:49:32.041Z,11.30
2023-06-07T13:51:59.939Z,17.83
2023-06-07T13:54:27.852Z,15.25
2023-06-07T13:56:55.747Z,14.52
2023-06-07T13:59:25.419Z,10.43
2023-06-07T14:01:54.215Z,8.13
2023-06-07T14:04:25.148Z,7.75
2023-06-07T14:06:53.314Z,5.70
2023-06-07T14:09:21.653Z,7.05
2023-06-07T14:11:50.440Z,9.60
2023-06-07T14:14:18.632Z,7.15
2023-06-07T14:16:46.523Z,6.22
2023-06-07T14:19:15.239Z,4.50
2023-06-07T14:21:43.196Z,5.80
2023-06-07T14:24:11.302Z,4.50
2023-06-07T14:26:39.206Z,3.58
2023-06-07T14:29:07.118Z,4.68
2023-06-07T14:31:35.100Z,6.20
2023-06-07T14:34:03.012Z,4.07
2023-06-07T14:36:31.205Z,4.93
2023-06-07T14:39:01.356Z,4.82
2023-06-07T14:41:29.286Z,4.25
2023-06-07T14:43:57.299Z,6.35
2023-06-07T14:46:25.355Z,7.10
2023-06-07T14:48:53.355Z,6.05
2023-06-07T14:51:24.634Z,8.88
2023-06-07T14:53:52.666Z,6.20
2023-06-07T14:56:20.556Z,7.53
2023-06-07T14:58:49.802Z,7.25
2023-06-07T15:01:18.577Z,4.28
2023-06-07T15:03:46.525Z,6.20
2023-06-07T15:06:14.530Z,6.60
2023-06-07T15:08:42.602Z,7.15
2023-06-07T15:11:10.674Z,6.05
2023-06-07T15:13:38.625Z,3.95
2023-06-07T15:16:06.591Z,5.35
2023-06-07T15:18:34.444Z,7.50
2023-06-07T15:21:02.290Z,4.95
2023-06-07T15:23:30.128Z,3.78
2023-06-07T15:26:01.151Z,6.40
2023-06-07T15:28:29.148Z,4.80
2023-06-07T15:30:57.005Z,9.02
2023-06-07T15:33:25.958Z,7.68
2023-06-07T15:35:53.908Z,8.10
2023-06-07T15:38:22.650Z,8.70
2023-06-07T15:40:50.533Z,5.40
2023-06-07T15:43:18.503Z,4.20
2023-06-07T15:45:48.160Z,2.75
2023-06-07T15:48:19.732Z,5.32
2023-06-07T15:50:48.071Z,6.05
2023-06-07T15:53:18.631Z,7.47
2023-06-07T15:55:47.162Z,7.22
2023-06-07T15:58:15.240Z,4.55
2023-06-07T16:00:47.477Z,6.28
2023-06-07T16:03:16.781Z,4.22
2023-06-07T16:05:44.775Z,5.65
2023-06-07T16:08:14.274Z,4.97
2023-06-07T16:10:44.173Z,6.82
2023-06-07T16:13:12.202Z,6.30
2023-06-07T16:15:40.044Z,4.78
2023-06-07T16:18:07.835Z,4.78
2023-06-07T16:20:35.894Z,3.45
2023-06-07T16:23:03.839Z,5.22
2023-06-07T16:25:35.745Z,3.80
2023-06-07T16:28:03.634Z,3.67
2023-06-07T16:30:31.925Z,3.53
2023-06-07T16:32:59.997Z,3.53
2023-06-07T16:35:28.074Z,3.85
2023-06-07T16:37:56.136Z,2.58
2023-06-07T16:40:24.581Z,4.18
2023-06-07T16:42:52.522Z,4.22
2023-06-07T16:45:20.786Z,4.47
2023-06-07T16:47:49.726Z,4.22
2023-06-07T16:50:17.876Z,3.92
2023-06-07T16:52:45.960Z,7.07
2023-06-07T16:55:14.244Z,7.03
2023-06-07T16:57:42.110Z,5.88
2023-06-07T17:00:10.641Z,11.98
2023-06-07T17:02:39.329Z,7.32
2023-06-07T17:05:07.964Z,8.55
2023-06-07T17:07:36.483Z,6.82
2023-06-07T17:10:04.932Z,5.78
2023-06-07T17:12:33.509Z,4.88
2023-06-07T17:15:01.570Z,5.60
2023-06-07T17:17:29.977Z,4.43
2023-06-07T17:19:58.189Z,11.23
2023-06-07T17:22:26.554Z,5.03
2023-06-07T17:24:56.451Z,7.38
2023-06-07T17:27:28.825Z,4.10
2023-06-07T17:29:56.647Z,5.20
2023-06-07T17:32:24.392Z,6.65
2023-06-07T17:34:53.631Z,4.68
2023-06-07T17:37:23.098Z,5.65
2023-06-07T17:39:53.280Z,5.22
2023-06-07T17:42:22.484Z,5.45
2023-06-07T17:44:53.370Z,4.53
2023-06-07T17:47:22.750Z,4.40
2023-06-07T17:49:50.752Z,5.85
2023-06-07T17:52:22.926Z,5.60
2023-06-07T17:54:51.779Z,31.30
2023-06-07T17:57:19.606Z,30.58
2023-06-07T17:59:47.387Z,31.20
2023-06-07T18:02:15.382Z,25.98
2023-06-07T18:04:43.152Z,24.48
2023-06-07T18:07:10.940Z,21.80
2023-06-07T18:09:40.577Z,17.88
2023-06-07T18:12:11.321Z,18.58
2023-06-07T18:14:41.480Z,29.13
2023-06-07T18:17:10.268Z,26.70
2023-06-07T18:19:39.070Z,18.13
2023-06-07T18:22:07.089Z,14.80
2023-06-07T18:24:34.820Z,11.85
2023-06-07T18:27:03.741Z,11.48
2023-06-07T18:29:34.021Z,9.45
2023-06-07T18:32:04.978Z,9.63
2023-06-07T18:34:35.087Z,6.93
2023-06-07T18:37:06.307Z,11.05
2023-06-07T18:39:34.757Z,12.25
2023-06-07T18:42:02.792Z,13.02
2023-06-07T18:44:32.087Z,13.43
2023-06-07T18:47:03.239Z,13.30
2023-06-07T18:49:31.691Z,10.13
2023-06-07T18:52:01.033Z,9.95
2023-06-07T18:54:29.120Z,10.13
2023-06-07T18:56:58.452Z,8.95
2023-06-07T18:59:26.539Z,6.70
2023-06-07T19:01:55.827Z,3.88
2023-06-07T19:04:25.423Z,6.13
2023-06-07T19:06:56.527Z,4.07
2023-06-07T19:09:24.347Z,5.90
2023-06-07T19:11:52.604Z,7.25
2023-06-07T19:14:20.570Z,5.65
2023-06-07T19:16:48.770Z,4.85
2023-06-07T19:19:16.756Z,4.75
2023-06-07T19:21:44.667Z,4.40
2023-06-07T19:24:12.885Z,7.30
2023-06-07T19:26:41.192Z,8.70
2023-06-07T19:29:09.117Z,9.30
2023-06-07T19:31:37.043Z,11.95
2023-06-07T19:34:07.022Z,12.85
2023-06-07T19:36:36.703Z,10.10
2023-06-07T19:39:04.567Z,7.53
2023-06-07T19:41:33.062Z,8.98
2023-06-07T19:44:01.006Z,8.55
2023-06-07T19:46:28.841Z,8.25
2023-06-07T19:48:58.421Z,8.27
2023-06-07T19:51:26.607Z,8.18
2023-06-07T19:53:57.951Z,8.43
2023-06-07T19:56:25.848Z,5.40
2023-06-07T19:58:53.623Z,7.55
2023-06-07T20:01:21.805Z,6.30
2023-06-07T20:03:49.707Z,5.57
2023-06-07T20:06:21.057Z,6.40
2023-06-07T20:09:08.331Z,9.07
2023-06-07T20:11:40.356Z,8.77
2023-06-07T20:14:09.646Z,9.43
2023-06-07T20:16:40.232Z,12.93
2023-06-07T20:19:32.316Z,13.40
2023-06-07T20:22:10.727Z,10.90
2023-06-07T20:24:48.827Z,13.05
2023-06-07T20:27:34.072Z,8.48
2023-06-07T20:31:07.405Z,8.82
2023-06-07T20:33:47.339Z,13.13
2023-06-07T20:36:32.022Z,15.13
2023-06-07T20:39:00.116Z,12.88
2023-06-07T20:41:34.937Z,9.63
2023-06-07T20:44:08.534Z,9.63
2023-06-07T20:46:37.151Z,7.85
2023-06-07T20:49:08.773Z,7.07
2023-06-07T20:51:40.730Z,7.78
2023-06-07T20:54:08.604Z,12.13
2023-06-07T20:56:36.484Z,12.45
2023-06-07T20:59:04.438Z,12.65
2023-06-07T21:01:34.774Z,14.27
2023-06-07T21:04:02.697Z,12.70
2023-06-07T21:06:30.880Z,10.13
2023-06-07T21:08:58.881Z,9.02
2023-06-07T21:11:26.985Z,11.50
2023-06-07T21:13:55.303Z,24.60
2023-06-07T21:16:23.157Z,19.38
2023-06-07T21:18:51.309Z,15.20
2023-06-07T21:21:19.252Z,12.48
2023-06-07T21:23:47.077Z,10.85
2023-06-07T21:26:15.146Z,12.18
2023-06-07T21:28:43.122Z,7.10
2023-06-07T21:31:12.053Z,6.85
2023-06-07T21:33:39.770Z,6.40
2023-06-07T21:36:07.726Z,6.00
2023-06-07T21:38:35.801Z,6.20
2023-06-07T21:41:03.588Z,6.47
2023-06-07T21:43:31.536Z,7.45
2023-06-07T21:45:59.399Z,8.70
2023-06-07T21:48:27.262Z,7.88
2023-06-07T21:50:55.879Z,4.93
2023-06-07T21:53:23.849Z,5.72
2023-06-07T21:55:51.719Z,4.53
2023-06-07T21:58:19.876Z,5.22
2023-06-07T22:00:49.738Z,4.78
2023-06-07T22:03:17.917Z,3.60
2023-06-07T22:05:45.845Z,5.07
2023-06-07T22:08:13.729Z,4.82
2023-06-07T22:10:42.830Z,4.05
2023-06-07T22:13:11.279Z,4.55
2023-06-07T22:15:41.097Z,5.78
2023-06-07T22:18:12.088Z,5.03
2023-06-07T22:20:41.552Z,4.53
2023-06-07T22:23:09.942Z,2.78
2023-06-07T22:25:41.461Z,4.07
2023-06-07T22:28:14.009Z,3.03
2023-06-07T22:30:42.517Z,2.63
2023-06-07T22:33:10.522Z,3.28
2023-06-07T22:35:41.255Z,4.70
2023-06-07T22:38:13.712Z,4.05
2023-06-07T22:40:43.232Z,4.18
2023-06-07T22:43:13.372Z,3.13
2023-06-07T22:45:42.790Z,2.83
2023-06-07T22:48:12.445Z,3.78
2023-06-07T22:50:44.391Z,3.63
2023-06-07T22:53:14.007Z,3.35
2023-06-07T22:55:42.542Z,3.33
2023-06-07T22:58:10.943Z,3.25
2023-06-07T23:00:40.641Z,3.33
2023-06-07T23:03:09.098Z,3.70
2023-06-07T23:05:38.388Z,4.15
2023-06-07T23:08:08.422Z,4.15
2023-06-07T23:10:38.377Z,3.53
2023-06-07T23:13:09.844Z,3.53
2023-06-07T23:15:43.393Z,4.78
2023-06-07T23:18:12.954Z,3.47
2023-06-07T23:21:08.861Z,4.18
2023-06-07T23:23:36.791Z,3.10
2023-06-07T23:26:06.360Z,2.40
2023-06-07T23:28:35.753Z,2.28
2023-06-07T23:31:04.434Z,3.40
2023-06-07T23:33:32.702Z,3.13
2023-06-07T23:36:02.238Z,2.90
2023-06-07T23:38:32.210Z,3.65
2023-06-07T23:41:02.212Z,3.00
2023-06-07T23:43:30.159Z,2.10
2023-06-07T23:45:58.807Z,3.95
2023-06-07T23:48:28.788Z,3.30
2023-06-07T23:50:56.636Z,3.22
2023-06-07T23:53:24.438Z,2.85
2023-06-07T23:55:54.183Z,3.30
2023-06-07T23:58:22.366Z,2.72
